sensor_id;sensor_type;location;lat;lon;timestamp;temperature;humidity
67817;DHT22;54614;47.576;7.524;2023-04-26T00:02:24;24.60;50.40
67817;DHT22;54614;47.576;7.524;2023-04-26T00:04:54;24.60;50.40
67817;DHT22;54614;47.576;7.524;2023-04-26T00:07:26;24.60;50.40
67817;DHT22;54614;47.576;7.524;2023-04-26T00:09:53;24.60;50.40
67817;DHT22;54614;47.576;7.524;2023-04-26T00:12:19;24.60;50.40
67817;DHT22;54614;47.576;7.524;2023-04-26T00:14:46;24.60;50.40
67817;DHT22;54614;47.576;7.524;2023-04-26T00:17:12;24.60;50.50
67817;DHT22;54614;47.576;7.524;2023-04-26T00:19:38;24.60;50.40
67817;DHT22;54614;47.576;7.524;2023-04-26T00:22:04;24.60;50.50
67817;DHT22;54614;47.576;7.524;2023-04-26T00:24:30;24.60;50.60
67817;DHT22;54614;47.576;7.524;2023-04-26T00:26:57;24.60;50.50
67817;DHT22;54614;47.576;7.524;2023-04-26T00:29:23;24.60;50.50
67817;DHT22;54614;47.576;7.524;2023-04-26T00:31:49;24.60;50.50
67817;DHT22;54614;47.576;7.524;2023-04-26T00:34:14;24.60;50.50
67817;DHT22;54614;47.576;7.524;2023-04-26T00:36:43;24.60;50.50
67817;DHT22;54614;47.576;7.524;2023-04-26T00:39:10;24.50;50.50
67817;DHT22;54614;47.576;7.524;2023-04-26T00:41:36;24.60;50.50
67817;DHT22;54614;47.576;7.524;2023-04-26T00:44:02;24.60;50.50
67817;DHT22;54614;47.576;7.524;2023-04-26T00:46:28;24.50;50.40
67817;DHT22;54614;47.576;7.524;2023-04-26T00:48:55;24.60;50.50
67817;DHT22;54614;47.576;7.524;2023-04-26T00:51:22;24.50;50.40
67817;DHT22;54614;47.576;7.524;2023-04-26T00:53:47;24.50;50.40
67817;DHT22;54614;47.576;7.524;2023-04-26T00:56:15;24.50;50.50
67817;DHT22;54614;47.576;7.524;2023-04-26T00:58:41;24.50;50.60
67817;DHT22;54614;47.576;7.524;2023-04-26T01:01:07;24.50;50.50
67817;DHT22;54614;47.576;7.524;2023-04-26T01:03:34;24.60;50.50
67817;DHT22;54614;47.576;7.524;2023-04-26T01:06:00;24.50;50.50
67817;DHT22;54614;47.576;7.524;2023-04-26T01:08:26;24.50;50.40
67817;DHT22;54614;47.576;7.524;2023-04-26T01:10:53;24.50;50.50
67817;DHT22;54614;47.576;7.524;2023-04-26T01:13:19;24.50;50.40
67817;DHT22;54614;47.576;7.524;2023-04-26T01:15:45;24.50;50.50
67817;DHT22;54614;47.576;7.524;2023-04-26T01:18:12;24.50;51.10
67817;DHT22;54614;47.576;7.524;2023-04-26T01:20:41;24.50;50.40
67817;DHT22;54614;47.576;7.524;2023-04-26T01:23:08;24.50;50.50
67817;DHT22;54614;47.576;7.524;2023-04-26T01:25:36;24.50;50.40
67817;DHT22;54614;47.576;7.524;2023-04-26T01:28:02;24.50;50.40
67817;DHT22;54614;47.576;7.524;2023-04-26T01:30:28;24.50;50.40
67817;DHT22;54614;47.576;7.524;2023-04-26T01:32:54;24.50;50.50
67817;DHT22;54614;47.576;7.524;2023-04-26T01:35:20;24.50;50.40
67817;DHT22;54614;47.576;7.524;2023-04-26T01:37:46;24.50;50.50
67817;DHT22;54614;47.576;7.524;2023-04-26T01:40:12;24.50;50.50
67817;DHT22;54614;47.576;7.524;2023-04-26T01:42:38;24.50;50.50
67817;DHT22;54614;47.576;7.524;2023-04-26T01:45:04;24.50;50.50
67817;DHT22;54614;47.576;7.524;2023-04-26T01:47:31;24.50;50.50
67817;DHT22;54614;47.576;7.524;2023-04-26T01:49:56;24.50;50.50
67817;DHT22;54614;47.576;7.524;2023-04-26T01:52:22;24.50;50.50
67817;DHT22;54614;47.576;7.524;2023-04-26T01:54:48;24.50;50.50
67817;DHT22;54614;47.576;7.524;2023-04-26T01:57:14;24.50;50.60
67817;DHT22;54614;47.576;7.524;2023-04-26T01:59:40;24.50;50.50
67817;DHT22;54614;47.576;7.524;2023-04-26T02:02:05;24.40;50.50
67817;DHT22;54614;47.576;7.524;2023-04-26T02:04:31;24.50;50.50
67817;DHT22;54614;47.576;7.524;2023-04-26T02:06:57;24.50;50.50
67817;DHT22;54614;47.576;7.524;2023-04-26T02:09:23;24.50;50.50
67817;DHT22;54614;47.576;7.524;2023-04-26T02:11:48;24.50;50.50
67817;DHT22;54614;47.576;7.524;2023-04-26T02:14:14;24.40;50.50
67817;DHT22;54614;47.576;7.524;2023-04-26T02:16:40;24.40;50.50
67817;DHT22;54614;47.576;7.524;2023-04-26T02:19:06;24.40;50.50
67817;DHT22;54614;47.576;7.524;2023-04-26T02:21:56;24.40;50.50
67817;DHT22;54614;47.576;7.524;2023-04-26T02:24:25;24.40;50.50
67817;DHT22;54614;47.576;7.524;2023-04-26T02:26:51;24.40;50.40
67817;DHT22;54614;47.576;7.524;2023-04-26T02:29:19;24.40;50.50
67817;DHT22;54614;47.576;7.524;2023-04-26T02:31:44;24.40;50.50
67817;DHT22;54614;47.576;7.524;2023-04-26T02:34:12;24.40;50.50
67817;DHT22;54614;47.576;7.524;2023-04-26T02:36:39;24.40;50.50
67817;DHT22;54614;47.576;7.524;2023-04-26T02:39:04;24.40;50.50
67817;DHT22;54614;47.576;7.524;2023-04-26T02:41:31;24.40;50.50
67817;DHT22;54614;47.576;7.524;2023-04-26T02:43:57;24.40;50.40
67817;DHT22;54614;47.576;7.524;2023-04-26T02:46:24;24.40;50.50
67817;DHT22;54614;47.576;7.524;2023-04-26T02:48:50;24.40;50.50
67817;DHT22;54614;47.576;7.524;2023-04-26T02:51:16;24.40;50.50
67817;DHT22;54614;47.576;7.524;2023-04-26T02:53:41;24.40;51.10
67817;DHT22;54614;47.576;7.524;2023-04-26T02:56:07;24.40;50.50
67817;DHT22;54614;47.576;7.524;2023-04-26T02:58:33;24.40;50.50
67817;DHT22;54614;47.576;7.524;2023-04-26T03:00:59;24.40;50.50
67817;DHT22;54614;47.576;7.524;2023-04-26T03:03:25;24.40;50.50
67817;DHT22;54614;47.576;7.524;2023-04-26T03:05:51;24.40;50.50
67817;DHT22;54614;47.576;7.524;2023-04-26T03:08:16;24.40;50.50
67817;DHT22;54614;47.576;7.524;2023-04-26T03:10:45;24.40;50.50
67817;DHT22;54614;47.576;7.524;2023-04-26T03:13:11;24.40;50.60
67817;DHT22;54614;47.576;7.524;2023-04-26T03:15:37;24.40;50.50
67817;DHT22;54614;47.576;7.524;2023-04-26T03:18:03;24.40;50.50
67817;DHT22;54614;47.576;7.524;2023-04-26T03:20:29;24.40;50.40
67817;DHT22;54614;47.576;7.524;2023-04-26T03:22:54;24.40;50.40
67817;DHT22;54614;47.576;7.524;2023-04-26T03:25:20;24.40;50.50
67817;DHT22;54614;47.576;7.524;2023-04-26T03:27:46;24.40;50.40
67817;DHT22;54614;47.576;7.524;2023-04-26T03:30:12;24.40;50.40
67817;DHT22;54614;47.576;7.524;2023-04-26T03:32:38;24.40;50.40
67817;DHT22;54614;47.576;7.524;2023-04-26T03:35:05;24.40;50.40
67817;DHT22;54614;47.576;7.524;2023-04-26T03:37:31;24.40;50.40
67817;DHT22;54614;47.576;7.524;2023-04-26T03:39:57;24.30;50.30
67817;DHT22;54614;47.576;7.524;2023-04-26T03:42:22;24.30;50.40
67817;DHT22;54614;47.576;7.524;2023-04-26T03:44:48;24.30;50.40
67817;DHT22;54614;47.576;7.524;2023-04-26T03:47:14;24.30;50.40
67817;DHT22;54614;47.576;7.524;2023-04-26T03:49:40;24.30;50.50
67817;DHT22;54614;47.576;7.524;2023-04-26T03:52:07;24.30;51.10
67817;DHT22;54614;47.576;7.524;2023-04-26T03:54:33;24.30;50.70
67817;DHT22;54614;47.576;7.524;2023-04-26T03:56:59;24.30;50.60
67817;DHT22;54614;47.576;7.524;2023-04-26T03:59:25;24.30;50.60
67817;DHT22;54614;47.576;7.524;2023-04-26T04:01:51;24.30;50.60
67817;DHT22;54614;47.576;7.524;2023-04-26T04:04:17;24.40;50.60
67817;DHT22;54614;47.576;7.524;2023-04-26T04:06:42;24.40;50.60
67817;DHT22;54614;47.576;7.524;2023-04-26T04:09:08;24.30;50.60
67817;DHT22;54614;47.576;7.524;2023-04-26T04:11:34;24.30;50.60
67817;DHT22;54614;47.576;7.524;2023-04-26T04:14:00;24.30;50.60
67817;DHT22;54614;47.576;7.524;2023-04-26T04:16:27;24.30;50.50
67817;DHT22;54614;47.576;7.524;2023-04-26T04:18:55;24.30;50.40
67817;DHT22;54614;47.576;7.524;2023-04-26T04:21:21;24.30;50.40
67817;DHT22;54614;47.576;7.524;2023-04-26T04:23:46;24.30;50.40
67817;DHT22;54614;47.576;7.524;2023-04-26T04:26:12;24.30;50.40
67817;DHT22;54614;47.576;7.524;2023-04-26T04:28:39;24.30;50.40
67817;DHT22;54614;47.576;7.524;2023-04-26T04:31:06;24.30;50.30
67817;DHT22;54614;47.576;7.524;2023-04-26T04:33:35;24.30;50.30
67817;DHT22;54614;47.576;7.524;2023-04-26T04:36:01;24.30;50.20
67817;DHT22;54614;47.576;7.524;2023-04-26T04:38:27;24.30;50.20
67817;DHT22;54614;47.576;7.524;2023-04-26T04:40:53;24.30;50.10
67817;DHT22;54614;47.576;7.524;2023-04-26T04:43:19;24.30;50.10
67817;DHT22;54614;47.576;7.524;2023-04-26T04:45:46;24.30;50.00
67817;DHT22;54614;47.576;7.524;2023-04-26T04:48:14;24.30;50.70
67817;DHT22;54614;47.576;7.524;2023-04-26T04:50:40;24.30;50.10
67817;DHT22;54614;47.576;7.524;2023-04-26T04:53:07;24.30;50.10
67817;DHT22;54614;47.576;7.524;2023-04-26T04:55:39;24.30;50.10
67817;DHT22;54614;47.576;7.524;2023-04-26T04:58:05;24.30;50.00
67817;DHT22;54614;47.576;7.524;2023-04-26T05:00:31;24.30;50.10
67817;DHT22;54614;47.576;7.524;2023-04-26T05:02:57;24.30;50.10
67817;DHT22;54614;47.576;7.524;2023-04-26T05:05:23;24.20;50.00
67817;DHT22;54614;47.576;7.524;2023-04-26T05:07:48;24.30;50.10
67817;DHT22;54614;47.576;7.524;2023-04-26T05:10:15;24.20;50.10
67817;DHT22;54614;47.576;7.524;2023-04-26T05:12:40;24.20;50.20
67817;DHT22;54614;47.576;7.524;2023-04-26T05:15:07;24.20;50.20
67817;DHT22;54614;47.576;7.524;2023-04-26T05:17:33;24.20;50.20
67817;DHT22;54614;47.576;7.524;2023-04-26T05:19:59;24.20;50.20
67817;DHT22;54614;47.576;7.524;2023-04-26T05:22:28;24.20;50.30
67817;DHT22;54614;47.576;7.524;2023-04-26T05:24:55;24.20;50.30
67817;DHT22;54614;47.576;7.524;2023-04-26T05:27:21;24.30;50.40
67817;DHT22;54614;47.576;7.524;2023-04-26T05:29:46;24.30;50.40
67817;DHT22;54614;47.576;7.524;2023-04-26T05:32:12;24.20;50.30
67817;DHT22;54614;47.576;7.524;2023-04-26T05:34:38;24.20;50.30
67817;DHT22;54614;47.576;7.524;2023-04-26T05:37:04;24.30;50.40
67817;DHT22;54614;47.576;7.524;2023-04-26T05:39:30;24.20;50.40
67817;DHT22;54614;47.576;7.524;2023-04-26T05:41:56;24.20;50.40
67817;DHT22;54614;47.576;7.524;2023-04-26T05:44:22;24.20;50.40
67817;DHT22;54614;47.576;7.524;2023-04-26T05:46:47;24.30;50.40
67817;DHT22;54614;47.576;7.524;2023-04-26T05:49:13;24.20;50.40
67817;DHT22;54614;47.576;7.524;2023-04-26T05:51:39;24.20;50.40
67817;DHT22;54614;47.576;7.524;2023-04-26T05:54:05;24.20;50.40
67817;DHT22;54614;47.576;7.524;2023-04-26T05:56:31;24.20;50.40
67817;DHT22;54614;47.576;7.524;2023-04-26T05:58:57;24.20;50.30
67817;DHT22;54614;47.576;7.524;2023-04-26T06:01:23;24.30;50.40
67817;DHT22;54614;47.576;7.524;2023-04-26T06:03:49;24.20;50.40
67817;DHT22;54614;47.576;7.524;2023-04-26T06:06:15;24.30;50.50
67817;DHT22;54614;47.576;7.524;2023-04-26T06:08:42;24.20;50.40
67817;DHT22;54614;47.576;7.524;2023-04-26T06:11:08;24.20;50.50
67817;DHT22;54614;47.576;7.524;2023-04-26T06:13:34;24.20;50.40
67817;DHT22;54614;47.576;7.524;2023-04-26T06:16:00;24.20;50.40
67817;DHT22;54614;47.576;7.524;2023-04-26T06:18:26;24.20;50.40
67817;DHT22;54614;47.576;7.524;2023-04-26T06:20:51;24.20;50.40
67817;DHT22;54614;47.576;7.524;2023-04-26T06:23:17;24.20;50.50
67817;DHT22;54614;47.576;7.524;2023-04-26T06:25:43;24.20;50.50
67817;DHT22;54614;47.576;7.524;2023-04-26T06:28:11;24.20;50.40
67817;DHT22;54614;47.576;7.524;2023-04-26T06:30:37;24.20;50.50
67817;DHT22;54614;47.576;7.524;2023-04-26T06:33:03;24.20;50.50
67817;DHT22;54614;47.576;7.524;2023-04-26T06:35:29;24.20;50.20
67817;DHT22;54614;47.576;7.524;2023-04-26T06:37:55;24.30;50.40
67817;DHT22;54614;47.576;7.524;2023-04-26T06:40:21;24.20;50.30
67817;DHT22;54614;47.576;7.524;2023-04-26T06:42:47;24.20;50.40
67817;DHT22;54614;47.576;7.524;2023-04-26T06:45:13;24.20;50.40
67817;DHT22;54614;47.576;7.524;2023-04-26T06:47:39;24.20;50.30
67817;DHT22;54614;47.576;7.524;2023-04-26T06:50:06;24.20;50.40
67817;DHT22;54614;47.576;7.524;2023-04-26T06:52:32;24.20;50.40
67817;DHT22;54614;47.576;7.524;2023-04-26T06:55:01;24.20;50.40
67817;DHT22;54614;47.576;7.524;2023-04-26T06:57:28;24.20;50.40
67817;DHT22;54614;47.576;7.524;2023-04-26T06:59:54;24.20;51.10
67817;DHT22;54614;47.576;7.524;2023-04-26T07:02:20;24.20;50.50
67817;DHT22;54614;47.576;7.524;2023-04-26T07:04:47;24.20;50.50
67817;DHT22;54614;47.576;7.524;2023-04-26T07:07:13;24.20;53.00
67817;DHT22;54614;47.576;7.524;2023-04-26T07:09:40;24.20;54.50
67817;DHT22;54614;47.576;7.524;2023-04-26T07:12:07;24.20;54.20
67817;DHT22;54614;47.576;7.524;2023-04-26T07:14:35;24.20;53.60
67817;DHT22;54614;47.576;7.524;2023-04-26T07:17:08;24.20;53.10
67817;DHT22;54614;47.576;7.524;2023-04-26T07:19:34;24.20;52.30
67817;DHT22;54614;47.576;7.524;2023-04-26T07:22:00;24.20;51.70
67817;DHT22;54614;47.576;7.524;2023-04-26T07:24:26;24.30;51.20
67817;DHT22;54614;47.576;7.524;2023-04-26T07:26:52;24.40;51.10
67817;DHT22;54614;47.576;7.524;2023-04-26T07:29:18;24.40;51.30
67817;DHT22;54614;47.576;7.524;2023-04-26T07:31:44;24.40;51.40
67817;DHT22;54614;47.576;7.524;2023-04-26T07:34:10;24.40;51.20
67817;DHT22;54614;47.576;7.524;2023-04-26T07:36:36;24.40;51.70
67817;DHT22;54614;47.576;7.524;2023-04-26T07:39:02;24.40;55.40
67817;DHT22;54614;47.576;7.524;2023-04-26T07:41:30;24.40;55.60
67817;DHT22;54614;47.576;7.524;2023-04-26T07:43:56;24.30;54.60
67817;DHT22;54614;47.576;7.524;2023-04-26T07:46:22;24.30;54.50
67817;DHT22;54614;47.576;7.524;2023-04-26T07:48:48;24.40;54.70
67817;DHT22;54614;47.576;7.524;2023-04-26T07:51:14;24.40;54.60
67817;DHT22;54614;47.576;7.524;2023-04-26T07:53:39;24.40;53.30
67817;DHT22;54614;47.576;7.524;2023-04-26T07:56:07;24.40;53.20
67817;DHT22;54614;47.576;7.524;2023-04-26T07:58:36;24.50;52.10
67817;DHT22;54614;47.576;7.524;2023-04-26T08:01:04;24.50;51.70
67817;DHT22;54614;47.576;7.524;2023-04-26T08:03:30;24.50;51.90
67817;DHT22;54614;47.576;7.524;2023-04-26T08:05:56;24.50;52.20
67817;DHT22;54614;47.576;7.524;2023-04-26T08:08:24;24.60;52.30
67817;DHT22;54614;47.576;7.524;2023-04-26T08:10:51;24.50;52.30
67817;DHT22;54614;47.576;7.524;2023-04-26T08:13:17;24.50;52.30
67817;DHT22;54614;47.576;7.524;2023-04-26T08:15:43;24.50;52.30
67817;DHT22;54614;47.576;7.524;2023-04-26T08:18:09;24.50;52.20
67817;DHT22;54614;47.576;7.524;2023-04-26T08:20:35;24.50;51.80
67817;DHT22;54614;47.576;7.524;2023-04-26T08:23:01;24.60;51.60
67817;DHT22;54614;47.576;7.524;2023-04-26T08:25:27;24.70;51.40
67817;DHT22;54614;47.576;7.524;2023-04-26T08:27:52;24.70;51.40
67817;DHT22;54614;47.576;7.524;2023-04-26T08:30:18;24.70;51.40
67817;DHT22;54614;47.576;7.524;2023-04-26T08:32:45;24.70;51.20
67817;DHT22;54614;47.576;7.524;2023-04-26T08:35:11;24.70;51.60
67817;DHT22;54614;47.576;7.524;2023-04-26T08:37:37;24.70;51.60
67817;DHT22;54614;47.576;7.524;2023-04-26T08:40:07;24.60;51.90
67817;DHT22;54614;47.576;7.524;2023-04-26T08:42:42;24.60;52.00
67817;DHT22;54614;47.576;7.524;2023-04-26T08:45:11;24.50;52.30
67817;DHT22;54614;47.576;7.524;2023-04-26T08:47:45;24.50;52.70
67817;DHT22;54614;47.576;7.524;2023-04-26T08:50:14;24.40;52.30
67817;DHT22;54614;47.576;7.524;2023-04-26T08:52:41;24.50;52.30
67817;DHT22;54614;47.576;7.524;2023-04-26T08:55:09;24.50;52.10
67817;DHT22;54614;47.576;7.524;2023-04-26T08:57:37;24.60;51.60
67817;DHT22;54614;47.576;7.524;2023-04-26T09:00:05;24.60;52.10
67817;DHT22;54614;47.576;7.524;2023-04-26T09:02:37;24.50;52.70
67817;DHT22;54614;47.576;7.524;2023-04-26T09:05:06;24.40;52.70
67817;DHT22;54614;47.576;7.524;2023-04-26T09:07:38;24.40;52.80
67817;DHT22;54614;47.576;7.524;2023-04-26T09:10:10;24.30;53.00
67817;DHT22;54614;47.576;7.524;2023-04-26T09:12:37;24.40;52.80
67817;DHT22;54614;47.576;7.524;2023-04-26T09:15:05;24.30;53.40
67817;DHT22;54614;47.576;7.524;2023-04-26T09:17:37;24.40;53.20
67817;DHT22;54614;47.576;7.524;2023-04-26T09:23:03;24.50;52.80
67817;DHT22;54614;47.576;7.524;2023-04-26T09:25:31;24.60;52.30
67817;DHT22;54614;47.576;7.524;2023-04-26T09:27:58;24.60;52.30
67817;DHT22;54614;47.576;7.524;2023-04-26T09:30:26;24.60;52.30
67817;DHT22;54614;47.576;7.524;2023-04-26T09:33:00;24.70;52.40
67817;DHT22;54614;47.576;7.524;2023-04-26T09:35:31;24.70;52.10
67817;DHT22;54614;47.576;7.524;2023-04-26T09:38:03;24.70;51.70
67817;DHT22;54614;47.576;7.524;2023-04-26T09:40:37;24.80;51.30
67817;DHT22;54614;47.576;7.524;2023-04-26T09:48:20;24.80;50.80
67817;DHT22;54614;47.576;7.524;2023-04-26T09:50:55;24.80;50.70
67817;DHT22;54614;47.576;7.524;2023-04-26T09:53:41;24.90;50.70
67817;DHT22;54614;47.576;7.524;2023-04-26T10:01:13;24.90;50.40
67817;DHT22;54614;47.576;7.524;2023-04-26T10:03:40;24.90;50.40
67817;DHT22;54614;47.576;7.524;2023-04-26T10:06:10;24.90;50.40
67817;DHT22;54614;47.576;7.524;2023-04-26T10:08:38;24.90;50.30
67817;DHT22;54614;47.576;7.524;2023-04-26T10:11:04;24.90;50.20
67817;DHT22;54614;47.576;7.524;2023-04-26T10:13:35;24.80;50.20
67817;DHT22;54614;47.576;7.524;2023-04-26T10:16:02;24.80;50.20
67817;DHT22;54614;47.576;7.524;2023-04-26T10:18:30;24.80;50.20
67817;DHT22;54614;47.576;7.524;2023-04-26T10:21:04;24.90;50.20
67817;DHT22;54614;47.576;7.524;2023-04-26T10:23:35;24.90;50.20
67817;DHT22;54614;47.576;7.524;2023-04-26T10:26:01;24.90;50.10
67817;DHT22;54614;47.576;7.524;2023-04-26T10:31:05;24.90;50.10
67817;DHT22;54614;47.576;7.524;2023-04-26T10:33:32;24.90;50.10
67817;DHT22;54614;47.576;7.524;2023-04-26T10:38:38;24.90;50.00
67817;DHT22;54614;47.576;7.524;2023-04-26T10:41:28;24.90;50.10
67817;DHT22;54614;47.576;7.524;2023-04-26T10:43:56;24.90;50.10
67817;DHT22;54614;47.576;7.524;2023-04-26T10:46:35;24.90;50.20
67817;DHT22;54614;47.576;7.524;2023-04-26T10:49:13;24.90;50.30
67817;DHT22;54614;47.576;7.524;2023-04-26T10:51:40;24.90;50.10
67817;DHT22;54614;47.576;7.524;2023-04-26T10:55:04;24.90;50.10
67817;DHT22;54614;47.576;7.524;2023-04-26T10:57:48;24.90;50.10
67817;DHT22;54614;47.576;7.524;2023-04-26T11:08:24;25.00;50.10
67817;DHT22;54614;47.576;7.524;2023-04-26T11:11:05;25.00;50.20
67817;DHT22;54614;47.576;7.524;2023-04-26T11:13:35;25.00;50.60
67817;DHT22;54614;47.576;7.524;2023-04-26T11:16:05;24.80;51.00
67817;DHT22;54614;47.576;7.524;2023-04-26T11:18:33;24.70;51.20
67817;DHT22;54614;47.576;7.524;2023-04-26T11:21:01;24.70;51.30
67817;DHT22;54614;47.576;7.524;2023-04-26T11:23:30;24.60;51.60
67817;DHT22;54614;47.576;7.524;2023-04-26T11:26:01;24.60;51.60
67817;DHT22;54614;47.576;7.524;2023-04-26T11:28:33;24.60;51.70
67817;DHT22;54614;47.576;7.524;2023-04-26T11:31:01;24.70;51.60
67817;DHT22;54614;47.576;7.524;2023-04-26T11:33:28;24.70;51.50
67817;DHT22;54614;47.576;7.524;2023-04-26T11:35:57;24.80;51.00
67817;DHT22;54614;47.576;7.524;2023-04-26T11:38:27;24.90;50.40
67817;DHT22;54614;47.576;7.524;2023-04-26T11:40:59;24.90;50.10
67817;DHT22;54614;47.576;7.524;2023-04-26T11:43:35;25.00;49.90
67817;DHT22;54614;47.576;7.524;2023-04-26T11:46:05;25.00;49.80
67817;DHT22;54614;47.576;7.524;2023-04-26T11:48:33;25.00;49.60
67817;DHT22;54614;47.576;7.524;2023-04-26T11:51:02;25.00;49.50
67817;DHT22;54614;47.576;7.524;2023-04-26T11:53:40;25.10;49.50
67817;DHT22;54614;47.576;7.524;2023-04-26T11:56:17;25.10;50.20
67817;DHT22;54614;47.576;7.524;2023-04-26T11:58:49;25.10;49.40
67817;DHT22;54614;47.576;7.524;2023-04-26T12:01:23;25.10;49.40
67817;DHT22;54614;47.576;7.524;2023-04-26T12:03:54;25.10;49.50
67817;DHT22;54614;47.576;7.524;2023-04-26T12:06:50;25.10;49.40
67817;DHT22;54614;47.576;7.524;2023-04-26T12:09:30;25.10;49.40
67817;DHT22;54614;47.576;7.524;2023-04-26T12:11:57;25.10;49.50
67817;DHT22;54614;47.576;7.524;2023-04-26T12:14:38;25.10;49.50
67817;DHT22;54614;47.576;7.524;2023-04-26T12:17:05;25.10;49.50
67817;DHT22;54614;47.576;7.524;2023-04-26T12:19:36;25.10;49.50
67817;DHT22;54614;47.576;7.524;2023-04-26T12:22:04;25.10;49.40
67817;DHT22;54614;47.576;7.524;2023-04-26T12:24:32;25.10;49.40
67817;DHT22;54614;47.576;7.524;2023-04-26T12:27:01;25.10;49.40
67817;DHT22;54614;47.576;7.524;2023-04-26T12:29:29;25.10;49.40
67817;DHT22;54614;47.576;7.524;2023-04-26T12:31:57;25.10;49.40
67817;DHT22;54614;47.576;7.524;2023-04-26T12:34:23;25.10;49.40
67817;DHT22;54614;47.576;7.524;2023-04-26T12:36:49;25.00;49.40
67817;DHT22;54614;47.576;7.524;2023-04-26T12:39:15;25.10;49.40
67817;DHT22;54614;47.576;7.524;2023-04-26T12:41:42;25.10;49.40
67817;DHT22;54614;47.576;7.524;2023-04-26T12:44:08;25.10;49.40
67817;DHT22;54614;47.576;7.524;2023-04-26T12:46:35;25.10;49.40
67817;DHT22;54614;47.576;7.524;2023-04-26T12:49:01;25.10;49.40
67817;DHT22;54614;47.576;7.524;2023-04-26T12:51:28;25.00;49.30
67817;DHT22;54614;47.576;7.524;2023-04-26T12:53:54;25.00;49.30
67817;DHT22;54614;47.576;7.524;2023-04-26T12:56:21;25.00;49.30
67817;DHT22;54614;47.576;7.524;2023-04-26T12:58:47;25.00;49.20
67817;DHT22;54614;47.576;7.524;2023-04-26T13:01:14;25.00;49.20
67817;DHT22;54614;47.576;7.524;2023-04-26T13:03:41;25.00;49.20
67817;DHT22;54614;47.576;7.524;2023-04-26T13:06:07;25.00;49.20
67817;DHT22;54614;47.576;7.524;2023-04-26T13:08:33;25.00;49.10
67817;DHT22;54614;47.576;7.524;2023-04-26T13:10:59;25.00;49.20
67817;DHT22;54614;47.576;7.524;2023-04-26T13:13:24;25.00;49.10
67817;DHT22;54614;47.576;7.524;2023-04-26T13:15:50;25.10;49.20
67817;DHT22;54614;47.576;7.524;2023-04-26T13:18:16;25.00;49.10
67817;DHT22;54614;47.576;7.524;2023-04-26T13:20:43;25.00;49.30
67817;DHT22;54614;47.576;7.524;2023-04-26T13:23:09;25.00;49.30
67817;DHT22;54614;47.576;7.524;2023-04-26T13:25:36;25.00;49.40
67817;DHT22;54614;47.576;7.524;2023-04-26T13:28:03;25.00;49.60
67817;DHT22;54614;47.576;7.524;2023-04-26T13:30:29;25.00;49.60
67817;DHT22;54614;47.576;7.524;2023-04-26T13:32:55;25.00;49.50
67817;DHT22;54614;47.576;7.524;2023-04-26T13:35:22;25.00;49.40
67817;DHT22;54614;47.576;7.524;2023-04-26T13:37:48;25.00;49.30
67817;DHT22;54614;47.576;7.524;2023-04-26T13:40:14;25.00;49.10
67817;DHT22;54614;47.576;7.524;2023-04-26T13:42:40;25.00;49.10
67817;DHT22;54614;47.576;7.524;2023-04-26T13:45:07;25.00;49.20
67817;DHT22;54614;47.576;7.524;2023-04-26T13:47:35;25.00;49.10
67817;DHT22;54614;47.576;7.524;2023-04-26T13:50:01;25.00;48.90
67817;DHT22;54614;47.576;7.524;2023-04-26T13:52:27;25.00;48.90
67817;DHT22;54614;47.576;7.524;2023-04-26T13:54:53;25.00;48.90
67817;DHT22;54614;47.576;7.524;2023-04-26T13:57:20;25.00;48.90
67817;DHT22;54614;47.576;7.524;2023-04-26T13:59:46;25.00;48.90
67817;DHT22;54614;47.576;7.524;2023-04-26T14:02:12;25.00;48.80
67817;DHT22;54614;47.576;7.524;2023-04-26T14:04:39;25.00;48.70
67817;DHT22;54614;47.576;7.524;2023-04-26T14:07:05;25.00;48.70
67817;DHT22;54614;47.576;7.524;2023-04-26T14:09:31;25.00;48.70
67817;DHT22;54614;47.576;7.524;2023-04-26T14:11:57;25.00;48.70
67817;DHT22;54614;47.576;7.524;2023-04-26T14:14:24;25.00;48.70
67817;DHT22;54614;47.576;7.524;2023-04-26T14:16:50;25.00;48.70
67817;DHT22;54614;47.576;7.524;2023-04-26T14:19:16;25.00;48.70
67817;DHT22;54614;47.576;7.524;2023-04-26T14:21:42;25.00;48.60
67817;DHT22;54614;47.576;7.524;2023-04-26T14:24:08;25.00;48.50
67817;DHT22;54614;47.576;7.524;2023-04-26T14:26:35;25.00;48.60
67817;DHT22;54614;47.576;7.524;2023-04-26T14:29:01;25.00;48.60
67817;DHT22;54614;47.576;7.524;2023-04-26T14:31:28;25.00;48.60
67817;DHT22;54614;47.576;7.524;2023-04-26T14:33:54;25.00;48.70
67817;DHT22;54614;47.576;7.524;2023-04-26T14:36:21;25.00;48.80
67817;DHT22;54614;47.576;7.524;2023-04-26T14:38:47;25.00;48.70
67817;DHT22;54614;47.576;7.524;2023-04-26T14:41:17;25.00;48.60
67817;DHT22;54614;47.576;7.524;2023-04-26T14:43:45;25.00;48.70
67817;DHT22;54614;47.576;7.524;2023-04-26T14:46:11;25.00;48.60
67817;DHT22;54614;47.576;7.524;2023-04-26T14:48:37;25.00;49.30
67817;DHT22;54614;47.576;7.524;2023-04-26T14:51:03;25.00;48.60
67817;DHT22;54614;47.576;7.524;2023-04-26T14:53:29;25.00;48.60
67817;DHT22;54614;47.576;7.524;2023-04-26T14:55:59;25.00;48.60
67817;DHT22;54614;47.576;7.524;2023-04-26T14:58:25;25.00;48.60
67817;DHT22;54614;47.576;7.524;2023-04-26T15:00:52;25.00;48.60
67817;DHT22;54614;47.576;7.524;2023-04-26T15:03:18;25.00;48.60
67817;DHT22;54614;47.576;7.524;2023-04-26T15:05:45;25.00;48.70
67817;DHT22;54614;47.576;7.524;2023-04-26T15:08:11;25.00;48.90
67817;DHT22;54614;47.576;7.524;2023-04-26T15:10:37;24.90;49.00
67817;DHT22;54614;47.576;7.524;2023-04-26T15:13:02;25.00;49.00
67817;DHT22;54614;47.576;7.524;2023-04-26T15:15:29;25.00;48.80
67817;DHT22;54614;47.576;7.524;2023-04-26T15:17:55;25.00;48.70
67817;DHT22;54614;47.576;7.524;2023-04-26T15:20:21;25.00;48.70
67817;DHT22;54614;47.576;7.524;2023-04-26T15:22:47;25.00;48.60
67817;DHT22;54614;47.576;7.524;2023-04-26T15:25:13;25.00;48.60
67817;DHT22;54614;47.576;7.524;2023-04-26T15:27:39;25.00;48.50
67817;DHT22;54614;47.576;7.524;2023-04-26T15:30:06;25.00;48.60
67817;DHT22;54614;47.576;7.524;2023-04-26T15:32:35;25.00;48.60
67817;DHT22;54614;47.576;7.524;2023-04-26T15:35:01;25.00;48.50
67817;DHT22;54614;47.576;7.524;2023-04-26T15:37:29;25.00;48.50
67817;DHT22;54614;47.576;7.524;2023-04-26T15:39:56;25.00;48.50
67817;DHT22;54614;47.576;7.524;2023-04-26T15:42:22;25.00;48.50
67817;DHT22;54614;47.576;7.524;2023-04-26T15:44:48;25.00;48.60
67817;DHT22;54614;47.576;7.524;2023-04-26T15:47:14;25.00;48.50
67817;DHT22;54614;47.576;7.524;2023-04-26T15:49:40;25.00;48.50
67817;DHT22;54614;47.576;7.524;2023-04-26T15:52:06;25.00;48.70
67817;DHT22;54614;47.576;7.524;2023-04-26T15:54:32;25.00;49.30
67817;DHT22;54614;47.576;7.524;2023-04-26T15:56:57;25.00;48.70
67817;DHT22;54614;47.576;7.524;2023-04-26T15:59:23;25.00;48.80